Time;durP1;ratioP1;P1;durP2;ratioP2;P2;SDS_P1;SDS_P2;PMS_P1;PMS_P2;Temp;Humidity;BMP_temperature;BMP_pressure;BME280_temperature;BME280_humidity;BME280_pressure;Samples;Min_cycle;Max_cycle;Signal;HPM_P1;HPM_P2
2021/01/31 00:00:54;;;;;;;32.85;15.98;;;-1.70;93.50;;;;;;4969899;28;20030;-89
2021/01/31 00:03:22;;;;;;;34.53;17.17;;;-1.70;93.60;;;;;;4984779;28;20038;-88
2021/01/31 00:05:49;;;;;;;33.92;16.10;;;-1.70;93.60;;;;;;4970957;28;20030;-88
2021/01/31 00:08:16;;;;;;;34.20;15.05;;;-1.80;93.50;;;;;;4971201;28;20656;-89
2021/01/31 00:10:43;;;;;;;35.08;16.63;;;-1.70;93.60;;;;;;4971124;28;20030;-89
2021/01/31 00:13:09;;;;;;;34.00;16.05;;;-1.80;93.60;;;;;;4971609;28;20034;-88
2021/01/31 00:15:39;;;;;;;35.15;16.80;;;-1.80;93.60;;;;;;4987425;28;20023;-87
2021/01/31 00:18:06;;;;;;;34.78;17.15;;;-1.80;93.60;;;;;;4970734;28;20483;-89
2021/01/31 00:20:33;;;;;;;35.00;15.57;;;-1.90;93.70;;;;;;4970520;28;20034;-88
2021/01/31 00:22:59;;;;;;;35.17;16.63;;;-1.90;93.70;;;;;;4964945;28;20034;-89
2021/01/31 00:25:25;;;;;;;37.08;17.27;;;-1.90;93.80;;;;;;4971291;28;20080;-89
2021/01/31 00:27:51;;;;;;;31.90;15.73;;;-1.90;93.80;;;;;;4969487;28;20096;-89
2021/01/31 00:30:37;;;;;;;33.33;16.35;;;-1.90;93.80;;;;;;4981587;28;20027;-89
2021/01/31 00:33:06;;;;;;;32.65;15.23;;;-1.90;93.90;;;;;;4961207;28;20032;-88
2021/01/31 00:35:33;;;;;;;37.90;16.00;;;-1.90;93.90;;;;;;4970839;28;20078;-88
2021/01/31 00:37:59;;;;;;;33.38;15.13;;;-2.00;93.80;;;;;;4971446;28;20030;-88
2021/01/31 00:40:25;;;;;;;33.75;16.08;;;-2.00;93.90;;;;;;4970218;28;20026;-88
2021/01/31 00:42:51;;;;;;;32.40;15.35;;;-2.00;93.90;;;;;;4973669;28;20035;-89
2021/01/31 00:45:20;;;;;;;35.63;16.05;;;-2.00;93.90;;;;;;4970431;28;20165;-89
2021/01/31 00:47:46;;;;;;;33.25;14.77;;;-2.00;94.00;;;;;;4966515;28;20057;-89
2021/01/31 00:50:14;;;;;;;30.08;13.93;;;-2.00;94.00;;;;;;4970322;28;20054;-89
2021/01/31 00:52:40;;;;;;;34.65;15.95;;;-2.10;94.00;;;;;;4970710;28;20088;-89
2021/01/31 00:55:06;;;;;;;33.78;15.85;;;-2.10;94.00;;;;;;4977758;28;20031;-88
2021/01/31 00:57:31;;;;;;;34.17;16.38;;;-2.10;94.00;;;;;;4975023;28;20383;-89
2021/01/31 00:59:57;;;;;;;33.95;15.15;;;-2.20;94.00;;;;;;4968208;28;20081;-89
2021/01/31 01:02:22;;;;;;;35.65;14.23;;;-2.20;94.10;;;;;;4970647;28;20039;-89
2021/01/31 01:04:49;;;;;;;36.40;16.90;;;-2.20;94.20;;;;;;4982341;28;20539;-89
2021/01/31 01:07:16;;;;;;;30.92;14.63;;;-2.20;94.20;;;;;;4972970;28;20030;-89
2021/01/31 01:09:42;;;;;;;34.15;16.38;;;-2.20;94.20;;;;;;4971236;28;20030;-89
2021/01/31 01:12:08;;;;;;;34.25;16.58;;;-2.20;94.30;;;;;;4987250;28;20410;-89
2021/01/31 01:14:34;;;;;;;33.92;15.40;;;-2.20;94.20;;;;;;4965998;28;20031;-89
2021/01/31 01:17:03;;;;;;;32.33;15.18;;;-2.30;94.20;;;;;;4980708;28;20031;-89
2021/01/31 01:19:29;;;;;;;33.85;15.57;;;-2.30;94.20;;;;;;4984878;28;20490;-88
2021/01/31 01:21:55;;;;;;;39.43;16.80;;;-2.30;94.20;;;;;;4959019;28;20024;-88
2021/01/31 01:24:21;;;;;;;32.05;14.82;;;-2.30;94.30;;;;;;4986476;28;20125;-88
2021/01/31 01:26:46;;;;;;;40.10;16.88;;;-2.30;94.30;;;;;;4970602;28;20096;-88
2021/01/31 01:29:12;;;;;;;41.90;17.77;;;-2.30;94.30;;;;;;4985910;28;20118;-88
2021/01/31 01:31:38;;;;;;;36.60;16.23;;;-2.40;94.30;;;;;;4964855;28;20042;-88
2021/01/31 01:34:04;;;;;;;35.63;16.00;;;-2.40;94.40;;;;;;4971818;28;20031;-86
2021/01/31 01:36:30;;;;;;;34.17;15.35;;;-2.30;94.50;;;;;;4982055;28;20091;-86
2021/01/31 01:38:55;;;;;;;39.75;17.42;;;-2.40;94.40;;;;;;4970485;28;20066;-86
2021/01/31 01:41:21;;;;;;;34.13;15.85;;;-2.40;94.50;;;;;;4970964;28;20100;-86
2021/01/31 01:43:50;;;;;;;32.47;14.85;;;-2.40;94.70;;;;;;4969461;28;20104;-86
2021/01/31 01:46:18;;;;;;;36.80;17.05;;;-2.40;94.40;;;;;;4965268;28;20055;-86
2021/01/31 01:48:49;;;;;;;31.40;13.25;;;-2.50;94.40;;;;;;4973740;28;20031;-86
2021/01/31 01:51:21;;;;;;;34.25;15.00;;;-2.50;94.50;;;;;;4974424;28;20082;-85
2021/01/31 01:53:47;;;;;;;38.20;17.85;;;-2.50;94.80;;;;;;4974752;28;20106;-86
2021/01/31 01:56:25;;;;;;;35.08;15.52;;;-2.50;94.50;;;;;;4966473;28;20077;-86
2021/01/31 01:58:55;;;;;;;33.53;15.50;;;-2.50;94.60;;;;;;4982504;28;20536;-86
2021/01/31 02:01:21;;;;;;;33.95;14.95;;;-2.50;94.90;;;;;;4974086;28;20022;-86
2021/01/31 07:48:54;;;;;;;44.42;18.80;;;-4.00;96.50;;;;;;4988345;28;20136;-88
2021/01/31 07:51:29;;;;;;;52.22;20.67;;;-3.90;96.50;;;;;;4988962;28;20074;-87
2021/01/31 07:53:55;;;;;;;41.72;16.30;;;-3.90;96.50;;;;;;4983928;28;20223;-87
2021/01/31 07:56:31;;;;;;;48.40;19.65;;;-3.90;96.40;;;;;;4990283;28;20094;-88
2021/01/31 07:58:58;;;;;;;49.58;19.55;;;-3.80;96.50;;;;;;4994226;28;20104;-89
2021/01/31 08:01:39;;;;;;;49.13;20.73;;;-3.80;96.50;;;;;;5001239;28;20029;-88
2021/01/31 08:04:22;;;;;;;44.45;18.55;;;-3.80;96.50;;;;;;5005005;28;20046;-88
2021/01/31 08:06:54;;;;;;;48.22;20.20;;;-3.70;96.50;;;;;;4992105;28;20104;-89
2021/01/31 08:09:25;;;;;;;48.78;18.83;;;-3.70;96.50;;;;;;5001147;28;20037;-88
2021/01/31 08:11:58;;;;;;;43.40;17.97;;;-3.60;96.50;;;;;;5001487;28;20041;-89
2021/01/31 08:15:02;;;;;;;51.13;19.67;;;-3.60;96.50;;;;;;4997952;28;20532;-89
2021/01/31 08:17:46;;;;;;;49.38;21.00;;;-3.50;96.50;;;;;;4999642;28;20457;-88
2021/01/31 08:20:30;;;;;;;47.72;19.63;;;-3.40;96.50;;;;;;4993773;28;20038;-90
2021/01/31 08:23:22;;;;;;;41.70;18.00;;;-3.40;96.50;;;;;;5002309;28;20061;-87
2021/01/31 08:26:06;;;;;;;44.58;17.92;;;-3.30;96.50;;;;;;4962843;28;20037;-88
2021/01/31 08:28:36;;;;;;;42.83;17.45;;;-3.20;96.40;;;;;;4992629;28;20043;-89
2021/01/31 08:31:05;;;;;;;48.67;20.05;;;-3.10;96.40;;;;;;4985793;28;20042;-89
2021/01/31 08:33:35;;;;;;;47.25;19.92;;;-3.10;96.40;;;;;;5001792;28;20034;-89
2021/01/31 08:36:06;;;;;;;52.47;20.67;;;-3.00;96.40;;;;;;5003003;28;20030;-87
2021/01/31 08:38:38;;;;;;;43.50;17.50;;;-2.90;96.40;;;;;;5002210;28;20477;-87
2021/01/31 08:41:03;;;;;;;48.92;20.77;;;-2.90;96.30;;;;;;4999488;28;20030;-87
2021/01/31 08:43:30;;;;;;;52.92;20.67;;;-2.80;96.30;;;;;;4996575;28;20053;-87
2021/01/31 08:46:15;;;;;;;50.00;20.17;;;-2.70;96.20;;;;;;4994819;28;20034;-87
2021/01/31 08:48:41;;;;;;;44.97;18.67;;;-2.70;96.10;;;;;;4991286;28;20070;-88
2021/01/31 08:51:13;;;;;;;50.08;20.77;;;-2.70;96.10;;;;;;5005782;28;20072;-87
2021/01/31 08:53:39;;;;;;;49.92;21.95;;;-2.60;96.10;;;;;;5010104;28;20076;-87
2021/01/31 08:56:37;;;;;;;46.85;19.35;;;-2.60;96.00;;;;;;5007030;28;20068;-85
2021/01/31 08:59:05;;;;;;;48.38;20.15;;;-2.50;95.90;;;;;;4981971;28;20052;-86
2021/01/31 09:01:41;;;;;;;44.63;19.33;;;-2.50;95.80;;;;;;4992666;28;20540;-86
2021/01/31 09:04:10;;;;;;;44.95;20.17;;;-2.50;95.80;;;;;;4977819;28;20073;-87
2021/01/31 09:06:41;;;;;;;44.92;20.35;;;-2.50;95.70;;;;;;4990494;28;20068;-88
2021/01/31 09:09:13;;;;;;;51.17;20.92;;;-2.50;95.80;;;;;;4993856;28;20038;-88
2021/01/31 09:11:39;;;;;;;45.95;20.42;;;-2.40;95.80;;;;;;4997992;28;20019;-87
2021/01/31 09:14:18;;;;;;;42.35;18.48;;;-2.30;95.80;;;;;;4982645;28;20042;-88
2021/01/31 09:16:44;;;;;;;35.28;14.50;;;-2.30;95.70;;;;;;5012616;28;20524;-88
2021/01/31 09:19:22;;;;;;;46.60;20.75;;;-2.20;95.60;;;;;;4999487;28;20026;-85
2021/01/31 09:21:50;;;;;;;43.30;19.50;;;-2.10;95.50;;;;;;4999161;28;20072;-86
2021/01/31 09:24:19;;;;;;;42.67;18.40;;;-2.10;95.50;;;;;;5008913;28;20121;-85
2021/01/31 09:26:49;;;;;;;45.50;19.13;;;-2.00;95.30;;;;;;4995441;28;20026;-85
2021/01/31 09:29:18;;;;;;;40.00;17.92;;;-2.00;95.30;;;;;;5001107;28;20026;-87
2021/01/31 09:31:43;;;;;;;45.80;20.52;;;-2.00;95.30;;;;;;5008724;28;20486;-86
2021/01/31 09:34:10;;;;;;;41.90;19.77;;;-1.90;95.60;;;;;;5011295;28;20022;-86
2021/01/31 09:36:36;;;;;;;39.35;18.33;;;-1.90;95.20;;;;;;5006566;28;20030;-86
2021/01/31 09:39:06;;;;;;;37.03;18.23;;;-1.80;95.20;;;;;;4997214;28;20113;-86
2021/01/31 09:41:33;;;;;;;42.88;18.77;;;-1.70;95.20;;;;;;4995410;28;20034;-84
2021/01/31 09:44:08;;;;;;;42.10;17.70;;;-1.60;95.00;;;;;;4991746;28;20066;-84
2021/01/31 09:46:35;;;;;;;42.38;20.90;;;-1.60;94.90;;;;;;5007328;28;20086;-85
2021/01/31 09:49:15;;;;;;;44.40;18.30;;;-1.50;94.80;;;;;;5001613;28;20062;-84
2021/01/31 09:51:42;;;;;;;39.20;19.73;;;-1.50;94.70;;;;;;4992836;28;20033;-85
2021/01/31 09:54:22;;;;;;;43.13;19.80;;;-1.50;94.60;;;;;;4995705;28;20035;-84
2021/01/31 09:56:54;;;;;;;35.80;17.08;;;-1.50;94.70;;;;;;4994412;28;20461;-85
2021/01/31 09:59:39;;;;;;;43.10;19.93;;;-1.40;94.70;;;;;;4994946;28;20030;-85
2021/01/31 10:02:12;;;;;;;38.05;17.80;;;-1.30;94.60;;;;;;4994985;28;20037;-85
2021/01/31 10:04:40;;;;;;;36.53;18.52;;;-1.30;94.60;;;;;;4991435;28;20486;-85
2021/01/31 10:07:08;;;;;;;33.30;16.00;;;-1.30;94.60;;;;;;5003119;28;20093;-84
2021/01/31 10:09:40;;;;;;;38.75;16.92;;;-1.20;94.50;;;;;;5001785;28;20061;-85
2021/01/31 10:12:25;;;;;;;41.05;19.15;;;-1.20;94.30;;;;;;4997980;28;20089;-85
2021/01/31 10:14:54;;;;;;;38.65;18.75;;;-1.20;94.30;;;;;;4999420;28;20121;-85
2021/01/31 10:17:37;;;;;;;37.95;18.10;;;-1.10;94.30;;;;;;5014732;28;20117;-84
2021/01/31 10:20:21;;;;;;;;;;;-1.10;94.10;;;;;;5015539;28;20022;-87
2021/01/31 10:22:46;;;;;;;33.70;16.33;;;-1.00;93.80;;;;;;5002708;28;19914;-85
2021/01/31 10:25:12;;;;;;;40.72;18.90;;;-1.00;94.00;;;;;;5001020;28;20034;-86
2021/01/31 10:27:47;;;;;;;42.22;19.45;;;-1.00;93.90;;;;;;4996835;28;20018;-85
2021/01/31 10:30:41;;;;;;;40.30;19.20;;;-0.90;93.70;;;;;;5004245;28;20034;-86
2021/01/31 10:33:08;;;;;;;36.38;16.67;;;-0.80;93.60;;;;;;4992157;28;20042;-86
2021/01/31 10:35:39;;;;;;;35.03;18.23;;;-0.70;93.70;;;;;;5008198;28;20030;-86
2021/01/31 10:38:31;;;;;;;36.28;17.23;;;-0.60;93.70;;;;;;4999827;28;20152;-86
2021/01/31 10:40:58;;;;;;;36.95;18.02;;;-0.40;93.50;;;;;;4983185;28;20026;-85
2021/01/31 10:43:25;;;;;;;33.53;15.80;;;-0.40;93.30;;;;;;4996736;28;20041;-87
2021/01/31 10:45:51;;;;;;;36.10;18.80;;;-0.30;93.40;;;;;;5001258;28;20065;-86
2021/01/31 10:48:17;;;;;;;35.28;18.73;;;-0.20;93.20;;;;;;5004776;28;20054;-86
2021/01/31 10:50:43;;;;;;;30.73;14.40;;;-0.10;93.50;;;;;;4995516;28;20033;-84
2021/01/31 10:53:08;;;;;;;33.80;15.88;;;0.00;93.20;;;;;;4995276;28;20018;-85
2021/01/31 10:55:34;;;;;;;36.15;17.02;;;0.00;92.50;;;;;;4992587;28;20034;-85
2021/01/31 10:57:59;;;;;;;30.52;15.05;;;0.00;92.60;;;;;;4990816;28;20032;-86
2021/01/31 11:00:25;;;;;;;33.53;17.27;;;0.10;92.60;;;;;;4999386;28;20101;-86
2021/01/31 11:02:51;;;;;;;31.63;15.70;;;0.10;92.40;;;;;;4995667;28;20043;-85
2021/01/31 11:05:17;;;;;;;32.30;16.27;;;0.20;92.30;;;;;;4997565;28;20030;-85
2021/01/31 11:07:43;;;;;;;29.75;15.45;;;0.30;92.50;;;;;;4999454;28;20089;-86
2021/01/31 11:10:10;;;;;;;30.35;16.20;;;0.40;92.20;;;;;;5001288;28;20030;-85
2021/01/31 11:12:36;;;;;;;33.95;18.10;;;0.40;92.00;;;;;;4995491;28;20018;-86
2021/01/31 11:15:02;;;;;;;31.23;16.23;;;0.50;91.80;;;;;;5005538;28;20124;-85
2021/01/31 11:17:27;;;;;;;34.15;17.00;;;0.50;91.80;;;;;;5001005;28;20054;-85
2021/01/31 11:19:53;;;;;;;31.67;16.85;;;0.60;91.80;;;;;;5004875;28;20077;-85
2021/01/31 11:22:18;;;;;;;26.70;14.20;;;0.60;91.70;;;;;;4998092;28;20030;-86
2021/01/31 11:24:44;;;;;;;29.20;14.75;;;0.60;91.50;;;;;;5009546;28;20448;-86
2021/01/31 11:27:10;;;;;;;26.55;13.52;;;0.70;91.60;;;;;;5001923;28;20037;-86
2021/01/31 11:29:36;;;;;;;30.15;15.98;;;0.80;91.60;;;;;;4996776;28;20034;-86
2021/01/31 11:32:01;;;;;;;30.88;16.23;;;0.80;91.20;;;;;;4999447;28;20552;-87
2021/01/31 11:34:28;;;;;;;29.73;16.05;;;0.80;91.20;;;;;;4993987;28;20049;-87
2021/01/31 11:36:53;;;;;;;28.02;15.57;;;0.80;91.40;;;;;;4999876;28;20477;-87
2021/01/31 11:39:19;;;;;;;28.17;15.02;;;0.90;90.90;;;;;;4985678;28;20037;-87
2021/01/31 11:41:45;;;;;;;30.95;15.77;;;0.90;91.10;;;;;;5012155;28;20033;-87
2021/01/31 11:44:10;;;;;;;26.45;13.45;;;0.90;91.00;;;;;;4999901;28;20035;-88
2021/01/31 11:46:36;;;;;;;26.27;14.38;;;1.00;90.80;;;;;;4998130;28;20034;-87
2021/01/31 11:49:03;;;;;;;28.50;15.73;;;1.00;90.80;;;;;;5003932;28;20489;-87
2021/01/31 11:51:29;;;;;;;28.63;14.93;;;1.10;90.80;;;;;;5002847;28;20022;-88
2021/01/31 11:53:54;;;;;;;26.30;13.30;;;1.10;90.80;;;;;;4997321;28;20022;-87
2021/01/31 11:56:20;;;;;;;25.02;14.23;;;1.10;90.80;;;;;;5002879;28;20022;-87
2021/01/31 11:58:45;;;;;;;26.55;14.85;;;1.20;90.60;;;;;;5005817;28;20552;-87
2021/01/31 12:01:13;;;;;;;30.13;15.35;;;1.20;90.50;;;;;;5008573;28;20026;-85
2021/01/31 12:03:38;;;;;;;27.67;14.05;;;1.20;90.50;;;;;;4994264;28;20042;-85
2021/01/31 12:06:04;;;;;;;23.77;13.48;;;1.30;90.20;;;;;;4998627;28;20030;-85
2021/01/31 12:08:30;;;;;;;21.02;12.10;;;1.30;90.20;;;;;;5001490;28;20026;-86
2021/01/31 12:10:56;;;;;;;24.48;14.00;;;1.30;89.80;;;;;;4990413;28;20036;-86
2021/01/31 12:13:21;;;;;;;22.83;13.43;;;1.30;89.60;;;;;;5001114;28;20030;-86
2021/01/31 12:15:47;;;;;;;26.38;13.82;;;1.30;89.50;;;;;;4994335;28;20027;-86
2021/01/31 12:18:13;;;;;;;25.15;13.38;;;1.30;89.10;;;;;;4993919;28;20531;-88
2021/01/31 12:20:39;;;;;;;23.27;12.50;;;1.30;89.50;;;;;;4989868;28;20037;-86
2021/01/31 12:23:05;;;;;;;22.20;12.85;;;1.30;89.70;;;;;;4987111;28;20064;-88
2021/01/31 12:25:31;;;;;;;23.65;12.95;;;1.40;89.20;;;;;;4993104;28;20026;-87
2021/01/31 12:27:57;;;;;;;21.83;12.90;;;1.40;89.00;;;;;;4993275;28;20026;-87
2021/01/31 12:30:26;;;;;;;24.10;12.88;;;1.50;89.00;;;;;;4992775;28;20114;-87
2021/01/31 12:32:52;;;;;;;23.60;12.63;;;1.60;88.90;;;;;;5007267;28;20023;-87
2021/01/31 12:35:18;;;;;;;25.20;14.27;;;1.60;88.10;;;;;;4992070;28;20034;-87
2021/01/31 12:37:44;;;;;;;25.25;13.38;;;1.60;87.50;;;;;;5005447;28;20019;-86
2021/01/31 12:40:10;;;;;;;24.15;13.07;;;1.60;87.50;;;;;;4993505;28;20394;-87
2021/01/31 12:42:39;;;;;;;20.42;10.98;;;1.60;87.70;;;;;;4993697;28;20034;-88
2021/01/31 12:45:06;;;;;;;18.67;10.80;;;1.60;87.20;;;;;;5011508;28;20029;-87
2021/01/31 12:47:32;;;;;;;22.52;12.60;;;1.60;87.00;;;;;;4997004;28;20050;-86
2021/01/31 12:49:57;;;;;;;20.50;11.02;;;1.70;87.30;;;;;;4996632;28;20504;-87
2021/01/31 12:52:24;;;;;;;24.23;12.45;;;1.70;87.50;;;;;;4996016;28;20022;-87
2021/01/31 12:54:50;;;;;;;20.15;11.40;;;1.70;87.70;;;;;;4998267;28;20478;-86
2021/01/31 12:57:16;;;;;;;25.45;13.07;;;1.80;87.40;;;;;;4991095;28;20034;-86
2021/01/31 12:59:41;;;;;;;19.92;11.75;;;1.90;87.30;;;;;;4992839;28;20157;-87
2021/01/31 13:02:07;;;;;;;19.15;10.82;;;1.90;87.20;;;;;;4993880;28;20072;-86
2021/01/31 13:04:33;;;;;;;20.80;11.07;;;1.90;87.30;;;;;;4994015;28;20038;-87
2021/01/31 13:06:59;;;;;;;19.38;10.85;;;2.00;87.20;;;;;;4996917;28;20572;-87
2021/01/31 13:09:29;;;;;;;19.90;10.95;;;2.00;86.50;;;;;;4991555;28;20041;-88
2021/01/31 13:11:56;;;;;;;18.90;10.57;;;2.10;85.90;;;;;;5004506;28;20029;-88
2021/01/31 13:14:39;;;;;;;20.88;11.00;;;2.10;85.90;;;;;;4981967;28;20593;-88
2021/01/31 13:17:09;;;;;;;21.65;11.18;;;2.10;85.80;;;;;;4994359;28;20026;-87
2021/01/31 13:19:35;;;;;;;20.08;10.63;;;2.20;85.60;;;;;;4996570;28;20485;-87
2021/01/31 13:22:03;;;;;;;22.98;12.75;;;2.20;85.80;;;;;;5000883;28;20041;-88
2021/01/31 13:24:43;;;;;;;19.98;11.82;;;2.30;86.10;;;;;;4994130;28;20177;-87
2021/01/31 13:27:10;;;;;;;21.98;11.32;;;2.50;86.30;;;;;;5009078;28;20025;-87
2021/01/31 13:29:37;;;;;;;21.90;11.55;;;2.60;86.10;;;;;;5004377;28;20027;-88
2021/01/31 13:32:16;;;;;;;20.75;10.68;;;2.70;85.30;;;;;;4985864;28;20031;-86
2021/01/31 13:34:42;;;;;;;22.65;10.00;;;2.80;85.30;;;;;;4991184;28;20129;-86
2021/01/31 13:37:08;;;;;;;15.15;9.15;;;2.90;85.20;;;;;;5007766;28;20057;-86
2021/01/31 13:39:34;;;;;;;15.13;8.18;;;3.00;84.80;;;;;;4998433;28;20031;-86
2021/01/31 13:41:59;;;;;;;12.48;6.85;;;3.10;84.10;;;;;;4981992;28;20034;-86
2021/01/31 13:44:25;;;;;;;13.55;8.05;;;3.10;84.50;;;;;;5000601;28;20041;-90
2021/01/31 13:46:53;;;;;;;14.48;8.15;;;3.20;84.00;;;;;;4997665;28;20058;-86
2021/01/31 13:49:19;;;;;;;17.10;8.38;;;3.20;83.80;;;;;;4996296;28;20038;-87
2021/01/31 13:51:45;;;;;;;13.98;7.95;;;3.20;83.30;;;;;;4991063;28;20030;-89
2021/01/31 13:54:10;;;;;;;13.65;8.13;;;3.20;82.40;;;;;;4996136;28;20026;-88
2021/01/31 13:56:36;;;;;;;17.05;9.10;;;3.20;81.90;;;;;;4996831;28;20030;-89
2021/01/31 13:59:02;;;;;;;16.27;9.82;;;3.20;81.70;;;;;;4994974;28;20040;-88
2021/01/31 14:01:27;;;;;;;17.92;9.98;;;3.20;82.00;;;;;;4997115;28;20174;-89
2021/01/31 14:03:53;;;;;;;17.83;9.32;;;3.20;81.60;;;;;;4994989;28;20378;-88
2021/01/31 14:06:19;;;;;;;18.17;9.82;;;3.20;81.40;;;;;;4997242;28;20018;-89
2021/01/31 14:08:44;;;;;;;12.93;8.48;;;3.20;80.60;;;;;;5004702;28;20030;-86
2021/01/31 14:11:10;;;;;;;17.50;10.05;;;3.10;80.90;;;;;;5005759;28;20042;-89
2021/01/31 14:13:35;;;;;;;13.93;8.43;;;3.00;81.20;;;;;;4991505;28;20035;-88
2021/01/31 14:16:01;;;;;;;16.00;9.18;;;2.80;81.60;;;;;;5002939;28;20026;-88
2021/01/31 14:18:27;;;;;;;16.25;8.98;;;2.80;81.60;;;;;;5000548;28;20022;-88
2021/01/31 14:20:52;;;;;;;15.13;8.73;;;2.70;81.20;;;;;;5003236;28;20030;-88
2021/01/31 14:23:18;;;;;;;16.08;9.23;;;2.70;81.70;;;;;;4996599;28;20038;-87
2021/01/31 14:25:44;;;;;;;14.20;8.13;;;2.70;81.50;;;;;;4998262;28;20616;-89
2021/01/31 14:28:10;;;;;;;15.07;8.48;;;2.80;81.70;;;;;;4997272;28;20080;-88
2021/01/31 14:30:35;;;;;;;14.55;8.27;;;2.80;81.70;;;;;;4999473;28;20030;-87
2021/01/31 14:33:01;;;;;;;12.60;6.88;;;2.90;81.60;;;;;;5008124;28;20026;-88
2021/01/31 14:35:29;;;;;;;13.85;7.95;;;2.90;81.30;;;;;;5016422;28;20029;-89
2021/01/31 14:37:55;;;;;;;13.35;8.00;;;2.90;80.70;;;;;;4998075;28;20113;-88
2021/01/31 14:40:22;;;;;;;10.93;6.80;;;2.90;80.70;;;;;;4991773;28;20026;-88
2021/01/31 14:42:48;;;;;;;12.98;7.82;;;2.90;80.50;;;;;;5005004;28;20053;-89
2021/01/31 14:45:25;;;;;;;13.35;6.38;;;2.90;80.40;;;;;;4996666;28;20038;-87
2021/01/31 14:47:50;;;;;;;12.40;7.25;;;2.90;80.50;;;;;;4998787;28;20105;-87
2021/01/31 14:50:16;;;;;;;13.80;7.18;;;2.90;80.10;;;;;;4994824;28;20038;-87
2021/01/31 14:52:42;;;;;;;13.50;7.95;;;2.90;79.70;;;;;;5007597;28;20030;-88
2021/01/31 14:55:10;;;;;;;18.58;8.32;;;2.90;79.70;;;;;;4980153;28;20371;-87
2021/01/31 14:57:35;;;;;;;13.30;7.53;;;2.90;79.50;;;;;;4994820;28;20030;-88
2021/01/31 15:00:03;;;;;;;13.35;7.80;;;2.80;79.20;;;;;;4995046;28;20038;-88
2021/01/31 15:02:28;;;;;;;16.63;8.40;;;2.70;78.40;;;;;;5003465;28;20031;-87
2021/01/31 15:04:54;;;;;;;12.43;8.05;;;2.70;78.70;;;;;;4995655;28;20041;-87
2021/01/31 15:07:19;;;;;;;15.32;8.10;;;2.60;79.20;;;;;;4992544;28;20389;-88
2021/01/31 15:09:45;;;;;;;11.25;6.88;;;2.50;79.50;;;;;;4999258;28;20037;-88
2021/01/31 15:12:10;;;;;;;12.68;7.25;;;2.40;79.70;;;;;;4990143;28;20031;-87
2021/01/31 15:14:36;;;;;;;15.52;8.30;;;2.30;79.90;;;;;;5002205;28;20022;-89
2021/01/31 15:17:02;;;;;;;14.88;7.88;;;2.30;80.00;;;;;;5010529;28;20034;-88
2021/01/31 15:19:27;;;;;;;12.95;7.07;;;2.20;80.00;;;;;;4994304;28;20031;-89
2021/01/31 15:21:53;;;;;;;11.70;6.90;;;2.20;80.30;;;;;;4996037;28;20076;-88
2021/01/31 15:24:18;;;;;;;13.02;7.95;;;2.20;80.00;;;;;;4995858;28;20112;-88
2021/01/31 15:26:44;;;;;;;12.70;7.13;;;2.10;80.20;;;;;;4996273;28;20018;-88
2021/01/31 15:29:10;;;;;;;15.45;8.32;;;2.00;80.40;;;;;;4995318;28;20038;-89
2021/01/31 15:31:35;;;;;;;14.95;8.15;;;2.00;80.60;;;;;;4995186;28;20386;-89
2021/01/31 15:34:01;;;;;;;14.45;7.82;;;1.90;80.50;;;;;;4998403;28;20113;-88
2021/01/31 15:36:26;;;;;;;11.90;6.30;;;1.80;80.70;;;;;;5004316;28;20389;-87
2021/01/31 15:38:52;;;;;;;13.88;7.07;;;1.80;80.90;;;;;;4994446;28;20037;-90
2021/01/31 15:41:17;;;;;;;13.07;7.30;;;1.70;81.00;;;;;;4990499;28;20622;-89
2021/01/31 15:43:43;;;;;;;11.75;6.82;;;1.60;81.20;;;;;;4994959;28;20045;-90
2021/01/31 15:46:09;;;;;;;13.93;8.40;;;1.60;81.40;;;;;;4993760;28;20026;-90
2021/01/31 15:48:35;;;;;;;14.57;8.65;;;1.50;81.60;;;;;;4995938;28;20138;-89
2021/01/31 15:51:00;;;;;;;17.15;8.60;;;1.50;81.80;;;;;;5014530;28;20490;-89
2021/01/31 15:53:26;;;;;;;13.88;7.88;;;1.40;81.70;;;;;;5000852;28;20030;-89
2021/01/31 15:55:52;;;;;;;16.42;8.48;;;1.30;81.70;;;;;;4987287;28;20041;-89
2021/01/31 15:58:18;;;;;;;16.25;7.90;;;1.30;81.80;;;;;;4999354;28;20022;-89
2021/01/31 16:00:43;;;;;;;13.80;7.70;;;1.20;81.90;;;;;;4995201;28;20023;-89
2021/01/31 16:03:09;;;;;;;13.93;7.70;;;1.10;82.00;;;;;;4996582;28;20030;-87
2021/01/31 16:05:36;;;;;;;12.77;6.97;;;1.10;82.20;;;;;;4995369;28;20045;-89
2021/01/31 16:08:03;;;;;;;13.75;7.65;;;1.00;82.40;;;;;;4999057;28;20116;-89
2021/01/31 16:10:29;;;;;;;14.90;8.52;;;1.00;82.60;;;;;;5000409;28;20033;-88
2021/01/31 16:12:54;;;;;;;15.70;9.18;;;0.90;82.80;;;;;;4992967;28;20026;-88
2021/01/31 16:15:24;;;;;;;14.10;7.78;;;0.80;83.00;;;;;;4994405;28;20030;-89
2021/01/31 16:17:49;;;;;;;15.02;8.25;;;0.80;83.10;;;;;;4988847;28;20706;-89
2021/01/31 16:20:17;;;;;;;13.10;7.78;;;0.80;83.20;;;;;;5004916;28;20060;-89
2021/01/31 16:22:43;;;;;;;14.02;7.70;;;0.70;83.20;;;;;;4998145;28;20050;-91
2021/01/31 16:25:09;;;;;;;16.08;7.85;;;0.70;83.30;;;;;;5002762;28;20065;-90
2021/01/31 16:27:35;;;;;;;16.38;8.43;;;0.70;83.40;;;;;;5008375;28;20027;-90
2021/01/31 16:30:00;;;;;;;16.08;8.80;;;0.70;83.60;;;;;;4993937;28;20040;-90
2021/01/31 16:32:26;;;;;;;17.23;8.82;;;0.60;83.70;;;;;;5000957;28;22904;-90
2021/01/31 16:34:51;;;;;;;19.55;9.77;;;0.60;83.90;;;;;;5012058;28;20034;-89
2021/01/31 16:37:17;;;;;;;16.48;9.10;;;0.50;84.10;;;;;;4993757;28;20426;-91
2021/01/31 16:39:44;;;;;;;16.85;8.40;;;0.50;84.40;;;;;;4991635;28;20493;-90
2021/01/31 16:42:12;;;;;;;17.58;9.05;;;0.50;84.60;;;;;;4992221;28;20041;-90
2021/01/31 16:44:38;;;;;;;17.00;7.93;;;0.50;84.60;;;;;;4998191;28;20053;-90
2021/01/31 16:47:03;;;;;;;18.52;8.30;;;0.50;84.90;;;;;;4991486;28;20178;-90
2021/01/31 16:49:29;;;;;;;17.95;9.32;;;0.50;85.00;;;;;;4996683;28;20503;-90
2021/01/31 16:51:55;;;;;;;18.15;9.90;;;0.40;85.20;;;;;;4999198;28;20114;-90
2021/01/31 16:54:21;;;;;;;24.23;10.55;;;0.40;85.50;;;;;;5007477;28;20032;-90
2021/01/31 16:56:49;;;;;;;22.55;10.85;;;0.40;85.60;;;;;;5008956;28;20385;-90
2021/01/31 16:59:15;;;;;;;21.15;11.10;;;0.30;85.80;;;;;;5004020;28;20058;-89
2021/01/31 17:01:41;;;;;;;19.25;9.63;;;0.30;85.90;;;;;;4997987;28;20466;-89
2021/01/31 17:04:06;;;;;;;20.88;10.40;;;0.30;85.90;;;;;;4996471;28;20044;-90
2021/01/31 17:06:32;;;;;;;20.52;10.45;;;0.30;86.70;;;;;;4989045;28;20030;-91
2021/01/31 17:08:58;;;;;;;23.13;11.30;;;0.40;87.30;;;;;;4987872;28;20034;-90
2021/01/31 17:11:24;;;;;;;19.40;10.20;;;0.50;87.10;;;;;;4993486;28;20029;-90
2021/01/31 17:13:50;;;;;;;20.52;11.05;;;0.50;87.20;;;;;;4991327;28;20502;-91
2021/01/31 17:16:19;;;;;;;24.52;10.98;;;0.50;87.10;;;;;;4995535;28;20026;-90
2021/01/31 17:18:44;;;;;;;24.63;12.13;;;0.50;87.40;;;;;;4993375;28;20072;-90
2021/01/31 17:21:10;;;;;;;26.08;11.07;;;0.50;87.70;;;;;;4989769;28;20038;-89
2021/01/31 17:23:35;;;;;;;20.23;11.32;;;0.60;87.80;;;;;;4989022;28;20061;-91
2021/01/31 17:26:01;;;;;;;19.88;10.98;;;0.60;87.60;;;;;;4985699;28;20026;-91
2021/01/31 17:28:27;;;;;;;24.90;11.90;;;0.60;87.50;;;;;;4988523;28;20026;-90
2021/01/31 17:30:53;;;;;;;20.45;10.38;;;0.60;87.40;;;;;;4989438;28;20034;-87
2021/01/31 17:33:19;;;;;;;21.48;10.13;;;0.50;87.40;;;;;;4989600;28;20026;-89
2021/01/31 17:35:45;;;;;;;19.98;9.93;;;0.50;87.50;;;;;;4992820;28;20489;-89
2021/01/31 17:38:11;;;;;;;20.83;11.13;;;0.50;87.50;;;;;;4989871;28;20026;-90
2021/01/31 17:40:37;;;;;;;21.58;11.10;;;0.50;87.60;;;;;;4988400;28;20026;-89
2021/01/31 17:43:04;;;;;;;20.95;11.02;;;0.50;87.70;;;;;;4993038;28;20113;-91
2021/01/31 17:45:30;;;;;;;21.90;12.43;;;0.50;87.60;;;;;;4995151;28;20030;-88
2021/01/31 17:47:56;;;;;;;22.98;11.88;;;0.50;87.60;;;;;;4991886;28;20047;-89
2021/01/31 17:50:26;;;;;;;23.77;12.43;;;0.50;87.60;;;;;;4983292;28;20041;-88
2021/01/31 17:52:51;;;;;;;24.45;11.63;;;0.50;87.60;;;;;;4991176;28;20584;-88
2021/01/31 17:55:20;;;;;;;27.98;13.32;;;0.50;87.60;;;;;;4992727;28;20023;-89
2021/01/31 17:57:46;;;;;;;23.05;12.02;;;0.50;87.80;;;;;;4988623;28;20074;-89
2021/01/31 18:00:14;;;;;;;23.38;10.85;;;0.50;87.80;;;;;;4984825;28;20026;-88
2021/01/31 18:02:40;;;;;;;22.60;11.88;;;0.50;87.80;;;;;;4990923;28;20054;-90
2021/01/31 18:05:08;;;;;;;25.25;13.10;;;0.50;87.70;;;;;;4985386;28;20058;-89
2021/01/31 18:07:34;;;;;;;24.25;13.60;;;0.50;87.60;;;;;;4988612;28;20030;-91
2021/01/31 18:10:01;;;;;;;24.63;12.68;;;0.50;87.60;;;;;;4987717;28;20085;-89
2021/01/31 18:12:26;;;;;;;22.55;11.82;;;0.50;87.70;;;;;;4990980;28;20061;-89
2021/01/31 18:14:52;;;;;;;26.30;12.95;;;0.50;87.70;;;;;;4990066;28;20050;-89
2021/01/31 18:17:18;;;;;;;21.13;12.88;;;0.50;87.80;;;;;;4989506;28;20076;-88
2021/01/31 18:19:44;;;;;;;25.48;12.73;;;0.50;87.70;;;;;;4989572;28;20050;-90
2021/01/31 18:22:10;;;;;;;21.52;11.32;;;0.60;87.60;;;;;;4988638;28;20080;-89
2021/01/31 18:24:36;;;;;;;25.27;13.60;;;0.60;87.70;;;;;;5002571;28;20034;-90